createdAt,value
2019-04-14T00:00:38.975Z,34.87
2019-04-14T00:03:19.299Z,40.10
2019-04-14T00:05:52.272Z,37.70
2019-04-14T00:08:24.059Z,38.90
2019-04-14T00:10:55.084Z,41.63
2019-04-14T00:13:26.494Z,38.17
2019-04-14T00:15:57.151Z,36.07
2019-04-14T00:18:29.441Z,37.27
2019-04-14T00:21:00.270Z,34.37
2019-04-14T00:23:32.651Z,36.10
2019-04-14T00:26:31.946Z,32.90
2019-04-14T00:29:04.459Z,35.33
2019-04-14T00:31:37.024Z,37.50
2019-04-14T00:34:31.012Z,40.57
2019-04-14T00:37:20.548Z,37.00
2019-04-14T00:39:53.288Z,43.60
2019-04-14T00:42:43.044Z,32.80
2019-04-14T00:45:34.025Z,34.67
2019-04-14T00:48:11.811Z,35.00
2019-04-14T00:50:40.913Z,37.20
2019-04-14T00:53:12.069Z,36.30
2019-04-14T00:55:42.969Z,34.00
2019-04-14T00:58:13.509Z,33.57
2019-04-14T01:00:45.159Z,31.27
2019-04-14T01:03:15.812Z,35.80
2019-04-14T01:05:48.112Z,32.53
2019-04-14T01:08:18.904Z,36.90
2019-04-14T01:10:49.829Z,41.70
2019-04-14T01:13:20.536Z,32.67
2019-04-14T01:15:58.676Z,33.37
2019-04-14T01:18:25.421Z,36.13
2019-04-14T01:20:56.035Z,34.00
2019-04-14T01:23:28.297Z,37.37
2019-04-14T01:25:59.001Z,39.27
2019-04-14T01:28:30.713Z,35.50
2019-04-14T01:31:01.280Z,37.90
2019-04-14T01:33:31.747Z,36.77
2019-04-14T01:36:02.429Z,38.40
2019-04-14T01:38:34.242Z,38.73
2019-04-14T01:41:04.821Z,45.70
2019-04-14T01:43:36.389Z,35.27
2019-04-14T01:46:14.604Z,34.50
2019-04-14T01:48:39.308Z,37.37
2019-04-14T01:51:46.902Z,38.80
2019-04-14T01:54:36.661Z,40.13
2019-04-14T01:57:26.347Z,45.40
2019-04-14T01:59:58.882Z,36.70
2019-04-14T02:02:29.624Z,45.53
2019-04-14T02:05:00.084Z,34.37
2019-04-14T02:07:31.901Z,33.97
2019-04-14T02:10:03.914Z,44.17
2019-04-14T02:12:34.556Z,39.70
2019-04-14T02:15:05.353Z,42.03
2019-04-14T02:17:37.022Z,35.93
2019-04-14T02:20:09.929Z,38.60
2019-04-14T02:22:41.872Z,32.93
2019-04-14T02:25:12.614Z,33.33
2019-04-14T02:27:43.451Z,34.80
2019-04-14T02:30:19.548Z,30.10
2019-04-14T02:33:13.599Z,29.87
2019-04-14T02:35:45.479Z,32.67
2019-04-14T02:38:23.332Z,39.07
2019-04-14T02:40:55.559Z,34.47
2019-04-14T02:43:41.671Z,35.87
2019-04-14T02:48:36.131Z,39.50
2019-04-14T02:51:01.943Z,40.90
2019-04-14T02:53:34.279Z,38.40
2019-04-14T02:56:11.543Z,38.90
2019-04-14T02:58:51.952Z,42.43
2019-04-14T03:01:14.642Z,39.30
2019-04-14T03:03:41.696Z,40.27
2019-04-14T03:11:21.220Z,42.10
2019-04-14T03:16:23.334Z,33.70
2019-04-14T03:19:19.766Z,44.90
2019-04-14T03:22:12.582Z,44.87
2019-04-14T03:24:37.547Z,45.83
2019-04-14T03:30:39.045Z,42.90
2019-04-14T03:35:58.819Z,51.17
2019-04-14T03:37:52.565Z,46.60
2019-04-14T03:40:28.036Z,47.20
2019-04-14T03:43:03.956Z,42.60
2019-04-14T03:45:39.434Z,50.83
2019-04-14T03:50:31.371Z,42.60
2019-04-14T03:53:15.869Z,40.37
2019-04-14T03:55:55.375Z,46.97
2019-04-14T03:58:22.611Z,43.97
2019-04-14T04:00:53.424Z,43.37
2019-04-14T04:03:23.980Z,43.70
2019-04-14T04:05:54.692Z,41.27
2019-04-14T04:08:25.315Z,41.23
2019-04-14T04:10:57.499Z,50.27
2019-04-14T04:13:28.152Z,47.50
2019-04-14T04:16:13.797Z,44.27
2019-04-14T04:18:56.219Z,43.00
2019-04-14T04:21:26.996Z,46.60
2019-04-14T04:24:02.142Z,50.67
2019-04-14T04:26:58.189Z,51.50
2019-04-14T04:29:48.443Z,44.87
2019-04-14T04:32:38.606Z,47.43
2019-04-14T04:35:13.148Z,44.37
2019-04-14T04:38:11.787Z,46.33
2019-04-14T04:40:42.478Z,41.23
2019-04-14T04:43:12.973Z,37.63
2019-04-14T04:45:43.427Z,48.20
2019-04-14T04:48:17.311Z,46.63
2019-04-14T04:50:47.908Z,48.60
2019-04-14T04:53:18.437Z,40.30
2019-04-14T04:55:48.891Z,39.17
2019-04-14T04:58:19.583Z,42.77
2019-04-14T05:00:52.513Z,45.43
2019-04-14T05:03:23.323Z,39.20
2019-04-14T05:06:48.339Z,41.03
2019-04-14T05:09:56.143Z,44.07
2019-04-14T05:12:41.326Z,32.70
2019-04-14T05:15:40.284Z,41.83
2019-04-14T05:18:33.588Z,40.40
2019-04-14T05:21:04.030Z,52.13
2019-04-14T05:23:34.435Z,41.00
2019-04-14T05:26:05.140Z,42.70
2019-04-14T05:28:35.591Z,43.03
2019-04-14T05:31:06.064Z,41.07
2019-04-14T05:33:36.488Z,41.63
2019-04-14T05:36:06.988Z,47.90
2019-04-14T05:38:38.522Z,50.33
2019-04-14T05:41:09.341Z,42.03
2019-04-14T05:43:47.078Z,42.03
2019-04-14T05:46:12.141Z,40.87
2019-04-14T05:48:42.664Z,43.87
2019-04-14T05:51:13.177Z,46.93
2019-04-14T05:53:43.867Z,40.03
2019-04-14T05:56:14.597Z,45.90
2019-04-14T05:58:45.062Z,43.77
2019-04-14T06:01:16.121Z,41.93
2019-04-14T06:03:47.498Z,43.30
2019-04-14T06:06:18.179Z,41.63
2019-04-14T06:08:48.682Z,48.70
2019-04-14T06:11:19.213Z,42.47
2019-04-14T06:13:49.637Z,35.70
2019-04-14T06:16:20.257Z,41.60
2019-04-14T06:18:50.745Z,39.00
2019-04-14T06:21:21.212Z,38.17
2019-04-14T06:23:51.674Z,32.80
2019-04-14T06:26:22.386Z,40.73
2019-04-14T06:28:52.998Z,34.97
2019-04-14T06:31:51.579Z,40.83
2019-04-14T06:34:40.911Z,41.37
2019-04-14T06:37:24.435Z,31.37
2019-04-14T06:39:54.917Z,32.30
2019-04-14T06:42:25.593Z,31.20
2019-04-14T06:44:56.044Z,28.13
2019-04-14T06:47:26.576Z,31.03
2019-04-14T06:49:57.046Z,29.10
2019-04-14T06:52:27.660Z,27.27
2019-04-14T06:54:58.423Z,28.37
2019-04-14T06:57:29.102Z,27.50
2019-04-14T06:59:59.586Z,22.23
2019-04-14T07:02:30.360Z,26.70
2019-04-14T07:05:00.867Z,33.40
2019-04-14T07:07:31.611Z,28.63
2019-04-14T07:10:02.197Z,24.67
2019-04-14T07:12:33.003Z,26.00
2019-04-14T07:15:03.698Z,26.67
2019-04-14T07:17:34.517Z,28.40
2019-04-14T07:20:06.194Z,24.27
2019-04-14T07:22:36.744Z,25.47
2019-04-14T07:25:07.333Z,23.63
2019-04-14T07:27:37.819Z,22.97
2019-04-14T07:30:46.761Z,28.57
2019-04-14T07:33:36.394Z,26.00
2019-04-14T07:36:31.911Z,22.80
2019-04-14T07:39:19.969Z,24.23
2019-04-14T07:42:21.567Z,30.07
2019-04-14T07:45:11.039Z,28.63
2019-04-14T07:48:15.717Z,30.13
2019-04-14T07:51:14.435Z,22.70
2019-04-14T07:53:54.592Z,24.80
2019-04-14T07:56:46.829Z,25.07
2019-04-14T07:59:29.107Z,23.43
2019-04-14T08:02:21.618Z,20.00
2019-04-14T08:05:00.213Z,27.30
2019-04-14T08:07:30.740Z,24.30
2019-04-14T08:10:01.397Z,26.70
2019-04-14T08:12:31.923Z,28.20
2019-04-14T08:15:02.420Z,26.33
2019-04-14T08:17:32.975Z,27.93
2019-04-14T08:20:11.908Z,23.77
2019-04-14T08:22:53.435Z,23.50
2019-04-14T08:25:23.950Z,21.53
2019-04-14T08:27:54.421Z,26.40
2019-04-14T08:30:24.998Z,24.30
2019-04-14T08:32:55.761Z,28.67
2019-04-14T08:35:26.599Z,24.73
2019-04-14T08:37:57.666Z,22.67
2019-04-14T08:40:28.378Z,21.37
2019-04-14T08:43:11.410Z,19.77
2019-04-14T08:46:03.635Z,22.10
2019-04-14T08:48:51.587Z,19.20
2019-04-14T08:51:38.666Z,24.40
2019-04-14T08:54:28.083Z,20.70
2019-04-14T08:57:07.471Z,17.60
2019-04-14T08:59:57.566Z,22.27
2019-04-14T09:02:44.486Z,18.50
2019-04-14T09:05:35.319Z,16.87
2019-04-14T09:08:28.310Z,20.43
2019-04-14T09:11:00.979Z,15.40
2019-04-14T09:13:31.869Z,18.50
2019-04-14T09:16:02.695Z,18.73
2019-04-14T09:18:33.534Z,18.90
2019-04-14T09:21:04.873Z,17.27
2019-04-14T09:23:36.216Z,19.85
2019-04-14T09:26:06.678Z,16.37
2019-04-14T09:28:37.208Z,16.30
2019-04-14T09:31:07.767Z,19.60
2019-04-14T09:33:40.233Z,23.30
2019-04-14T09:36:10.775Z,16.57
2019-04-14T09:38:41.216Z,14.80
2019-04-14T09:41:12.011Z,16.03
2019-04-14T09:43:42.955Z,19.87
2019-04-14T09:46:13.472Z,15.20
2019-04-14T09:48:44.058Z,17.40
2019-04-14T09:51:15.000Z,14.00
2019-04-14T09:53:45.784Z,15.63
2019-04-14T09:56:16.604Z,20.53
2019-04-14T09:58:47.331Z,15.30
2019-04-14T10:01:18.479Z,18.13
2019-04-14T10:03:49.242Z,16.30
2019-04-14T10:06:19.805Z,15.73
2019-04-14T10:08:50.730Z,20.60
2019-04-14T10:11:21.299Z,17.17
2019-04-14T10:13:51.888Z,21.60
2019-04-14T10:16:22.483Z,20.33
2019-04-14T10:18:52.966Z,16.40
2019-04-14T10:21:23.455Z,18.00
2019-04-14T10:23:54.158Z,18.20
2019-04-14T10:26:24.813Z,18.40
2019-04-14T10:28:55.255Z,17.30
2019-04-14T10:31:25.847Z,17.07
2019-04-14T10:33:56.378Z,18.20
2019-04-14T10:36:26.886Z,20.23
2019-04-14T10:38:57.413Z,17.87
2019-04-14T10:41:27.969Z,19.30
2019-04-14T10:43:58.606Z,16.77
2019-04-14T10:46:29.243Z,18.60
2019-04-14T10:48:59.935Z,15.17
2019-04-14T10:51:33.849Z,16.70
2019-04-14T10:54:02.659Z,18.03
2019-04-14T10:56:33.241Z,24.17
2019-04-14T10:59:03.885Z,17.97
2019-04-14T11:01:34.889Z,22.43
2019-04-14T11:04:08.004Z,18.50
2019-04-14T11:06:41.519Z,17.10
2019-04-14T11:09:15.222Z,15.83
2019-04-14T11:11:46.585Z,18.40
2019-04-14T11:14:17.025Z,15.40
2019-04-14T11:16:47.505Z,17.90
2019-04-14T11:19:18.162Z,16.23
2019-04-14T11:21:48.690Z,19.70
2019-04-14T11:24:19.179Z,19.77
2019-04-14T11:26:49.736Z,20.77
2019-04-14T11:29:20.439Z,20.07
2019-04-14T11:32:11.488Z,20.03
2019-04-14T11:35:06.889Z,19.83
2019-04-14T11:38:02.102Z,22.80
2019-04-14T11:40:36.408Z,19.40
2019-04-14T11:43:07.142Z,20.57
2019-04-14T11:45:39.001Z,22.13
2019-04-14T11:48:09.566Z,18.90
2019-04-14T11:50:40.091Z,21.13
2019-04-14T11:53:12.245Z,19.93
2019-04-14T11:55:42.705Z,16.43
2019-04-14T11:58:13.178Z,16.80
2019-04-14T12:01:02.316Z,21.57
2019-04-14T12:03:43.931Z,17.97
2019-04-14T12:06:42.475Z,16.63
2019-04-14T12:09:40.948Z,16.90
2019-04-14T12:12:11.652Z,19.00
2019-04-14T12:14:42.375Z,17.23
2019-04-14T12:17:12.976Z,20.40
2019-04-14T12:19:43.715Z,16.83
2019-04-14T12:22:14.454Z,20.13
2019-04-14T12:24:45.087Z,15.10
2019-04-14T12:27:15.709Z,22.60
2019-04-14T12:29:47.946Z,19.83
2019-04-14T12:32:19.822Z,20.87
2019-04-14T12:34:50.884Z,22.60
2019-04-14T12:37:21.713Z,23.00
2019-04-14T12:39:52.423Z,17.70
2019-04-14T12:42:54.395Z,18.33
2019-04-14T12:45:52.699Z,17.13
2019-04-14T12:48:39.813Z,17.47
2019-04-14T12:51:20.505Z,16.23
2019-04-14T12:53:51.468Z,18.47
2019-04-14T12:56:25.720Z,19.07
2019-04-14T12:59:18.215Z,19.83
2019-04-14T13:01:56.306Z,17.43
2019-04-14T13:04:27.096Z,17.07
2019-04-14T13:06:58.115Z,17.83
2019-04-14T13:09:28.812Z,26.13
2019-04-14T13:11:59.568Z,15.93
2019-04-14T13:14:30.080Z,22.27
2019-04-14T13:17:00.575Z,16.47
2019-04-14T13:19:31.136Z,15.83
2019-04-14T13:22:01.736Z,17.90
2019-04-14T13:24:32.802Z,17.30
2019-04-14T13:27:03.398Z,17.27
2019-04-14T13:29:36.871Z,21.03
2019-04-14T13:32:07.670Z,26.20
2019-04-14T13:34:38.718Z,23.83
2019-04-14T13:37:09.150Z,17.00
2019-04-14T13:39:39.648Z,16.50
2019-04-14T13:42:10.298Z,20.73
2019-04-14T13:44:40.828Z,18.80
2019-04-14T13:47:11.374Z,21.83
2019-04-14T13:49:42.149Z,16.17
2019-04-14T13:52:12.730Z,29.33
2019-04-14T13:54:43.247Z,22.00
2019-04-14T13:57:13.779Z,17.90
2019-04-14T13:59:44.277Z,15.50
2019-04-14T14:02:14.760Z,20.37
2019-04-14T14:04:45.277Z,18.07
2019-04-14T14:07:15.734Z,17.67
2019-04-14T14:09:46.241Z,20.43
2019-04-14T14:12:33.990Z,21.43
2019-04-14T14:15:32.617Z,17.37
2019-04-14T14:18:34.096Z,16.67
2019-04-14T14:21:23.570Z,17.30
2019-04-14T14:24:01.045Z,21.50
2019-04-14T14:26:32.862Z,16.00
2019-04-14T14:29:03.348Z,22.53
2019-04-14T14:31:33.972Z,20.83
2019-04-14T14:34:04.779Z,18.47
2019-04-14T14:36:35.245Z,20.00
2019-04-14T14:39:08.803Z,23.97
2019-04-14T14:41:39.466Z,17.13
2019-04-14T14:44:09.994Z,19.27
2019-04-14T14:47:02.179Z,24.60
2019-04-14T14:49:51.555Z,25.57
2019-04-14T14:52:22.840Z,20.30
2019-04-14T14:54:53.326Z,22.33
2019-04-14T14:57:24.169Z,16.93
2019-04-14T14:59:55.728Z,21.60
2019-04-14T15:02:26.479Z,22.53
2019-04-14T15:04:57.007Z,19.13
2019-04-14T15:07:27.545Z,19.93
2019-04-14T15:09:58.020Z,22.93
2019-04-14T15:12:28.868Z,22.50
2019-04-14T15:14:59.346Z,14.43
2019-04-14T15:17:30.032Z,21.10
2019-04-14T15:20:00.738Z,17.87
2019-04-14T15:22:31.226Z,17.20
2019-04-14T15:25:01.982Z,19.40
2019-04-14T15:27:32.695Z,18.03
2019-04-14T15:30:04.150Z,31.00
2019-04-14T15:32:34.687Z,19.47
2019-04-14T15:35:05.493Z,17.13
2019-04-14T15:37:36.243Z,17.20
2019-04-14T15:40:07.819Z,16.73
2019-04-14T15:42:38.487Z,16.67
2019-04-14T15:45:10.159Z,18.37
2019-04-14T15:47:40.894Z,19.70
2019-04-14T15:50:11.523Z,16.53
2019-04-14T15:52:42.080Z,20.83
2019-04-14T15:55:14.994Z,13.27
2019-04-14T15:57:57.396Z,19.80
2019-04-14T16:00:47.050Z,18.23
2019-04-14T16:03:36.576Z,17.90
2019-04-14T16:06:28.703Z,15.17
2019-04-14T16:09:18.022Z,14.80
2019-04-14T16:11:57.110Z,13.00
2019-04-14T16:15:05.037Z,11.30
2019-04-14T16:17:57.487Z,9.80
2019-04-14T16:20:33.165Z,11.20
2019-04-14T16:23:03.682Z,11.67
2019-04-14T16:25:59.224Z,9.60
2019-04-14T16:28:37.974Z,8.70
2019-04-14T16:31:34.007Z,8.47
2019-04-14T16:34:26.386Z,9.10
2019-04-14T16:36:57.657Z,9.27
2019-04-14T16:39:28.239Z,10.17
2019-04-14T16:41:58.754Z,8.10
2019-04-14T16:44:29.400Z,11.33
2019-04-14T16:47:00.004Z,12.20
2019-04-14T16:49:30.525Z,12.80
2019-04-14T16:52:06.317Z,11.40
2019-04-14T16:54:58.777Z,11.87
2019-04-14T16:57:48.376Z,13.57
2019-04-14T17:00:28.858Z,9.17
2019-04-14T17:02:59.517Z,13.93
2019-04-14T17:05:30.157Z,20.27
2019-04-14T17:08:00.891Z,12.70
2019-04-14T17:10:31.403Z,12.60
2019-04-14T17:13:02.068Z,11.03
2019-04-14T17:16:03.542Z,13.00
2019-04-14T17:18:47.902Z,12.17
2019-04-14T17:21:36.233Z,22.53
2019-04-14T17:24:24.539Z,11.53
2019-04-14T17:27:17.004Z,18.00
2019-04-14T17:30:06.603Z,18.50
2019-04-14T17:32:58.189Z,15.37
2019-04-14T17:35:40.351Z,16.97
2019-04-14T17:38:16.653Z,19.63
2019-04-14T17:41:02.464Z,23.20
2019-04-14T17:43:43.921Z,24.00
2019-04-14T17:46:33.649Z,15.70
2019-04-14T17:49:20.625Z,19.53
2019-04-14T17:52:10.315Z,22.23
2019-04-14T17:55:02.975Z,17.67
2019-04-14T17:57:49.815Z,22.60
2019-04-14T18:00:25.747Z,20.63
2019-04-14T18:03:02.380Z,24.77
2019-04-14T18:05:45.327Z,25.23
2019-04-14T18:08:32.722Z,19.43
2019-04-14T18:11:08.702Z,26.00
2019-04-14T18:13:59.369Z,18.80
2019-04-14T18:16:34.808Z,19.10
2019-04-14T18:19:12.539Z,17.30
2019-04-14T18:21:44.391Z,17.53
2019-04-14T18:24:15.211Z,17.83
2019-04-14T18:26:45.756Z,22.90
2019-04-14T18:29:44.652Z,24.80
2019-04-14T18:32:37.292Z,22.00
2019-04-14T18:35:14.647Z,17.73
2019-04-14T18:38:06.988Z,18.40
2019-04-14T18:40:49.646Z,15.33
2019-04-14T18:43:48.535Z,17.30
2019-04-14T18:46:29.685Z,18.40
2019-04-14T18:49:05.759Z,18.30
2019-04-14T18:51:40.887Z,20.50
2019-04-14T18:54:39.605Z,15.03
2019-04-14T18:57:14.766Z,16.90
2019-04-14T19:00:10.632Z,20.57
2019-04-14T19:02:41.215Z,19.10
2019-04-14T19:05:11.984Z,19.63
2019-04-14T19:07:42.569Z,16.73
2019-04-14T19:10:13.701Z,14.93
2019-04-14T19:12:56.251Z,17.73
2019-04-14T19:15:46.331Z,21.10
2019-04-14T19:18:38.429Z,20.50
2019-04-14T19:21:12.001Z,16.53
2019-04-14T19:23:42.589Z,19.60
2019-04-14T19:26:13.184Z,16.33
2019-04-14T19:28:43.677Z,20.83
2019-04-14T19:31:14.802Z,25.37
2019-04-14T19:33:45.727Z,24.67
2019-04-14T19:36:16.264Z,20.07
2019-04-14T19:38:46.934Z,16.63
2019-04-14T19:41:17.658Z,21.70
2019-04-14T19:43:48.121Z,19.13
2019-04-14T19:46:19.058Z,23.33
2019-04-14T19:48:49.701Z,17.40
2019-04-14T19:51:20.215Z,18.90
2019-04-14T19:53:51.000Z,20.33
2019-04-14T19:56:21.639Z,20.90
2019-04-14T19:58:52.210Z,19.90
2019-04-14T20:01:22.889Z,19.03
2019-04-14T20:03:54.200Z,21.43
2019-04-14T20:06:25.761Z,18.83
2019-04-14T20:08:56.441Z,16.23
2019-04-14T20:11:27.323Z,17.53
2019-04-14T20:13:58.043Z,17.03
2019-04-14T20:16:59.722Z,19.20
2019-04-14T20:19:46.641Z,18.47
2019-04-14T20:22:36.136Z,16.00
2019-04-14T20:25:18.589Z,15.73
2019-04-14T20:27:54.169Z,20.40
2019-04-14T20:30:35.234Z,16.97
2019-04-14T20:33:05.948Z,13.50
2019-04-14T20:35:37.024Z,17.33
2019-04-14T20:38:07.569Z,14.60
2019-04-14T20:40:38.095Z,15.97
2019-04-14T20:43:08.979Z,12.47
2019-04-14T20:45:39.527Z,12.83
2019-04-14T20:48:10.193Z,12.10
2019-04-14T20:50:40.867Z,14.03
2019-04-14T20:53:11.458Z,10.80
2019-04-14T20:55:47.405Z,13.20
2019-04-14T20:58:14.742Z,11.53
2019-04-14T21:00:45.250Z,12.60
2019-04-14T21:03:32.786Z,13.13
2019-04-14T21:06:27.984Z,11.60
2019-04-14T21:09:26.961Z,8.80
2019-04-14T21:12:22.392Z,8.63
2019-04-14T21:15:09.875Z,11.00
2019-04-14T21:17:54.102Z,10.03
2019-04-14T21:20:35.201Z,10.93
2019-04-14T21:23:20.130Z,19.50
2019-04-14T21:26:00.693Z,10.80
2019-04-14T21:28:47.768Z,10.60
2019-04-14T21:31:30.564Z,8.93
2019-04-14T21:34:14.876Z,9.57
2019-04-14T21:37:09.349Z,10.83
2019-04-14T21:39:58.820Z,8.93
2019-04-14T21:42:29.372Z,13.33
2019-04-14T21:45:00.361Z,10.03
2019-04-14T21:47:30.950Z,9.43
2019-04-14T21:50:01.842Z,8.37
2019-04-14T21:52:44.283Z,9.93
2019-04-14T21:55:15.662Z,11.50
2019-04-14T21:58:20.368Z,11.17
2019-04-14T22:01:53.398Z,12.30
2019-04-14T22:04:42.652Z,9.10
2019-04-14T22:07:41.090Z,5.80
2019-04-14T22:10:23.017Z,8.13
2019-04-14T22:12:53.449Z,8.80
2019-04-14T22:15:24.529Z,8.50
2019-04-14T22:17:55.804Z,9.03
2019-04-14T22:20:26.311Z,9.13
2019-04-14T22:22:56.978Z,12.43
2019-04-14T22:25:27.399Z,7.43
2019-04-14T22:27:57.910Z,7.37
2019-04-14T22:30:28.401Z,8.73
2019-04-14T22:32:59.051Z,7.90
2019-04-14T22:35:29.533Z,8.83
2019-04-14T22:38:00.008Z,6.43
2019-04-14T22:40:30.415Z,8.97
2019-04-14T22:43:05.159Z,8.40
2019-04-14T22:45:36.019Z,6.03
2019-04-14T22:48:06.600Z,8.47
2019-04-14T22:50:37.016Z,7.63
2019-04-14T22:53:07.531Z,8.70
2019-04-14T22:55:38.017Z,10.13
2019-04-14T22:58:08.552Z,6.93
2019-04-14T23:00:50.010Z,8.43
2019-04-14T23:03:39.047Z,7.10
2019-04-14T23:06:32.075Z,7.83
2019-04-14T23:09:21.954Z,9.70
2019-04-14T23:12:09.925Z,9.80
2019-04-14T23:15:02.287Z,7.60
2019-04-14T23:17:53.868Z,10.00
2019-04-14T23:20:27.564Z,7.23
2019-04-14T23:23:03.740Z,10.33
2019-04-14T23:25:36.187Z,6.90
2019-04-14T23:28:06.684Z,5.53
2019-04-14T23:30:37.124Z,9.03
2019-04-14T23:33:07.587Z,7.67
2019-04-14T23:35:38.036Z,8.03
2019-04-14T23:38:08.511Z,6.63
2019-04-14T23:40:38.981Z,7.23
2019-04-14T23:43:09.517Z,7.87
2019-04-14T23:45:39.997Z,6.90
2019-04-14T23:48:10.481Z,8.43
2019-04-14T23:50:40.877Z,5.90
2019-04-14T23:53:11.380Z,6.10
2019-04-14T23:55:41.907Z,6.10
2019-04-14T23:58:12.439Z,8.73
